Ely, Nevada Weather observations

Data are for observation ending at time listed.
 Day   Time    Ave.   Ave.  Ave.  Vector   Max.   Stn.    Total    Solar   Ave.  
  of    of     Air    Rel.  Wind   Wind    Wind   Baro.  Precip.   Rad.    Soil  
Year   Day     Temp.  Hum.  Speed  Dir.    Gust   Pres.                    Temp. 
2014   (PST)    F      %     mph   deg.    mph     mb.     in.     W/m2     F   
------------------------------------------------------------------------------
 272    8:10   44.2    74   10.8   146     14.3   809.4    0.00     285    47.0
 272    8:20   44.4    74   10.6   149     14.5   809.4    0.00     244    47.4
 272    8:30   45.0    72   10.5   146     12.9   809.4    0.00     292    47.7
 272    8:40   45.7    70    9.7   154     11.9   809.5    0.00     351    48.1
 272    8:50   46.7    68    7.7   153      9.7   809.5    0.00     383    48.9
 272    9:00   48.1    65    7.0   146     10.2   809.5    0.00     407    49.8
 272    9:10   48.7    61    6.2   146      8.3   809.5    0.00     425    50.6
 272    9:20   49.9    59    4.0   136      6.0   809.5    0.00     431    51.5
 272    9:30   51.1    57    2.5   148      4.6   809.4    0.00     434    52.4
 272    9:40   53.2    52    0.5   114      1.8   809.5    0.00     498    53.5
 272    9:50   54.0    50    0.9    69      2.5   809.4    0.00     505    54.8
 272   10:00   55.0    48    1.3    97      3.9   809.3    0.00     519    55.8
 272   10:10   54.7    47    1.5    74      3.8   809.3    0.00     483    56.6
 272   10:20   54.7    47    0.9    46      3.3   809.2    0.00     576    57.5
 272   10:30   54.9    46    3.2    45      6.9   809.2    0.00     580    58.4
 272   10:40   55.2    46    2.0    11      4.7   809.2    0.00     431    58.8
 272   10:50   55.1    45    9.2   246     15.3   809.2    0.00     326    58.9
 272   11:00   55.7    42    9.2   214     14.5   809.3    0.00     476    58.6
 272   11:10   55.9    43    8.4   232     13.2   809.3    0.00     480    59.0
 272   11:20   55.4    44    5.3   269      9.9   809.3    0.00     514    59.4
 272   11:30   56.2    41    8.1   261     13.9   809.2    0.00     431    59.9
 272   11:40   55.6    42    8.3   267     12.1   809.2    0.00     319    59.7
 272   11:50   55.7    43    7.7   244     13.4   809.2    0.00     265    59.5
 272   12:00   55.1    47   10.7   237     19.6   809.3    0.00     172    59.0
 272   12:10   51.0    68   13.4   246     19.9   809.5    0.00     115    58.3
 272   12:20   49.8    73   10.3   240     15.2   809.7    0.01     128    57.6
 272   12:30   49.9    71    3.6   229      9.0   809.7    0.00     215    57.2
 272   12:40   51.0    65    1.4    90      5.7   809.6    0.00     252    57.4
 272   12:50   51.5    64    6.0    79      9.3   809.4    0.00     389    57.6
 272   13:00   51.2    66    7.5    75     11.0   809.4    0.00     297    57.5
 272   13:10   51.3    63    5.1    58      9.3   809.5    0.00     158    57.1
 272   13:20   52.3    56    2.3   134      5.6   809.5    0.00     255    56.7
 272   13:30   53.1    56    1.7   336      4.9   809.6    0.00     200    57.0
 272   13:40   52.4    58    9.9   277     17.4   809.7    0.00     117    57.0
 272   13:50   51.9    61    9.6   277     14.1   809.8    0.00     125    56.5
 272   14:00   51.7    60    9.1   269     13.6   809.8    0.00     138    56.0
 272   14:10   52.0    59    6.1   274      8.6   809.7    0.00     177    55.8
 272   14:20   52.2    57    6.1   286      9.8   809.7    0.00     194    55.9
 272   14:30   52.5    56    7.7   253     11.7   809.7    0.00     159    55.9
 272   14:40   52.5    56    6.8   248     10.7   809.7    0.00     111    55.7
 272   14:50   52.5    57    8.6   232     11.8   809.7    0.00      82    55.5
 272   15:00   52.4    56    5.9   215      9.2   809.7    0.00     116    55.2
 272   15:10   52.9    55    4.8   215     11.0   809.7    0.00     204    55.2
 272   15:20   52.8    55    4.6   213      8.4   809.7    0.00      78    55.3
 272   15:30   52.6    56    3.7   266      8.0   809.7    0.00      75    55.1
 272   15:40   52.5    56    3.7   296      5.6   809.7    0.00      76    55.1
 272   15:50   52.5    55    5.4   279      7.7   809.8    0.00      59    55.0
 272   16:00   52.4    54    3.8   268      6.1   809.8    0.00      37    54.7
 272   16:10   52.1    55    5.1   292      6.9   809.8    0.00      21    54.4
 272   16:20   52.1    56    3.9   293      5.7   809.8    0.00      21    54.2
 272   16:30   52.2    55    2.5   336      4.0   809.8    0.00      19    54.0
 272   16:40   52.2    55    2.3   281      4.2   809.8    0.00      18    54.0
 272   16:50   52.3    56    1.9   244      6.6   809.9    0.00      11    53.9
 272   17:00   52.1    58    3.5   270      5.0   809.9    0.00       7    53.7
 272   17:10   51.9    58    4.9   268      6.9   809.9    0.00       7    53.5
 272   17:20   51.8    60    6.2   274      8.6   809.8    0.00       7    53.3
 272   17:30   51.5    61    6.7   279      8.5   809.8    0.00       7    53.0
 272   17:40   51.2    62    7.0   291      9.1   809.8    0.00       1    52.8
 272   17:50   51.2    62    8.1   286     10.9   809.8    0.00       1    52.5
 272   18:00   51.0    63    6.6   287      8.7   809.8    0.00       0    52.4
 272   18:10   50.8    64    7.0   287      8.8   809.8    0.00       0    52.2
 272   18:20   50.7    64    6.3   290      8.3   809.9    0.00       1    52.1
 272   18:30   50.7    64    6.4   285      9.1   809.9    0.00       1    52.0
 272   18:40   50.6    65    7.2   269      8.8   810.0    0.00       0    51.9
 272   18:50   50.5    65    6.9   268      9.0   810.2    0.00       0    51.8
 272   19:00   50.4    66    7.4   266      9.1   810.2    0.00       0    51.7
 272   19:10   50.3    66    7.3   268      9.1   810.3    0.00       0    51.6
 272   19:20   50.3    66    6.1   286      7.5   810.3    0.00       1    51.6
 272   19:30   50.2    67    6.4   282      8.0   810.4    0.00       0    51.5
 272   19:40   50.0    68    5.6   289      7.8   810.4    0.00       0    51.4
 272   19:50   50.0    68    4.5   326      6.1   810.4    0.00       0    51.4
 272   20:00   50.0    67    3.4   325      5.1   810.5    0.00       0    51.5
 272   20:10   50.1    66    3.1   328      5.0   810.5    0.00       0    51.6
 272   20:20   50.1    66    1.0   346      2.9   810.4    0.00       0    51.5
 272   20:30   49.6    69    2.2   299      3.3   810.4    0.00       1    51.4
 272   20:40   49.5    69    2.9   336      3.8   810.4    0.00       0    51.3
 272   20:50   49.5    68    1.8   339      3.2   810.4    0.00       0    51.1
 272   21:00   48.8    71    2.3   282      3.7   810.5    0.00       1    50.9
 272   21:10   48.1    74    4.5   300      5.7   810.6    0.00       1    50.8
 272   21:20   47.9    74    4.5   262      6.2   810.8    0.00       1    50.8
 272   21:30   48.2    74    5.1   260      6.9   810.8    0.00       0    50.8
 272   21:40   48.7    73    3.7   269      6.0   810.8    0.00       1    50.7
 272   21:50   48.9    72    1.9   270      3.2   810.8    0.00       1    50.8
 272   22:00   48.9    72    1.6    22      2.3   810.8    0.00       0    50.8
 272   22:10   48.6    72    3.2    62      4.0   810.8    0.00       1    50.8
 272   22:20   48.5    72    3.5    70      5.2   810.6    0.00       1    50.6
 272   22:30   48.8    71    2.4    71      3.4   810.7    0.00       2    50.5
 272   22:40   49.1    71    0.5    57      1.6   810.7    0.00       1    50.5
 272   22:50   49.3    71    0.0     0      0.0   810.6    0.00       1    50.6
 272   23:00   49.3    71    0.2   230      1.3   810.6    0.00       1    50.6
 272   23:10   48.9    75    1.0   241      2.6   810.6    0.00       0    50.8
 272   23:20   48.5    76    0.2   203      1.4   810.4    0.00       0    50.8
 272   23:30   48.3    76    2.0   119      3.3   810.4    0.00       0    50.7
 272   23:40   47.9    77    2.1   145      3.7   810.2    0.00       1    50.4
 272   23:50   47.3    76    3.7   199      5.3   810.3    0.00       1    50.1
 273    0:00   46.5    77    3.0   144      5.3   810.2    0.00       1    49.7
 273    0:10   45.1    82    4.1    93      6.4   810.2    0.00       1    49.3
 273    0:20   45.8    78    1.2   303      5.0   810.2    0.00       0    48.9
 273    0:30   47.7    73    3.5   343      6.7   810.1    0.00       0    48.7
 273    0:40   47.8    73    3.6   327      5.3   810.4    0.00       0    48.5
 273    0:50   46.2    76    4.3   326      6.1   810.7    0.00       0    48.4
 273    1:00   44.5    80    3.3    31      7.4   810.8    0.00       1    48.2
 273    1:10   44.1    81    2.5    58      6.5   810.7    0.00       0    48.0
 273    1:20   44.5    80    2.0    54      4.4   810.6    0.00       1    47.8
 273    1:30   44.4    81    2.0   359      4.2   810.5    0.00       0    47.6
 273    1:40   44.2    81    2.7    18      4.6   810.5    0.00       1    47.5
 273    1:50   44.0    81    2.9    68      4.6   810.4    0.00       1    47.2
 273    2:00   43.1    84    1.4   178      3.1   810.1    0.00       1    47.0
 273    2:10   43.3    83    2.2   165      3.3   809.9    0.00       0    46.8
 273    2:20   43.1    82    3.4   174      5.3   809.9    0.00       0    46.6
 273    2:30   42.4    83    4.5   176      6.3   809.9    0.00       0    46.4
 273    2:40   40.8    85    3.6   134      5.4   810.0    0.00       0    46.2
 273    2:50   39.7    88    3.6   133      5.8   810.0    0.00       0    45.9
 273    3:00   39.5    88    2.5   129      4.8   809.8    0.00       1    45.6
 273    3:10   39.1    88    3.2   169      4.5   809.8    0.00       1    45.4
 273    3:20   38.1    89    2.4   179      3.9   809.9    0.00       0    45.3
 273    3:30   36.9    89    4.1   141      5.7   809.8    0.00       0    45.0
 273    3:40   36.7    90    4.9   161      7.5   809.8    0.00       1    44.7
 273    3:50   35.9    90    5.4   143      6.6   809.9    0.00       0    44.4
 273    4:00   36.0    92    4.5   135      5.8   809.9    0.00       0    44.1
 273    4:10   36.3    92    5.6   146      8.1   809.8    0.00       0    43.9
 273    4:20   37.2    91    7.8   151     10.3   809.8    0.00       0    43.7
 273    4:30   37.3    91    8.5   148     11.2   809.7    0.00       0    43.6
 273    4:40   37.3    90    9.2   151     11.8   809.7    0.00       0    43.5
 273    4:50   37.3    90    9.6   153     12.1   809.7    0.00       0    43.4
 273    5:00   37.7    90    8.4   147     11.5   809.9    0.00       0    43.3
 273    5:10   38.2    90    8.7   141     11.3   810.0    0.00       1    43.3
 273    5:20   38.7    90    8.5   144     10.7   810.0    0.00       0    43.3
 273    5:30   38.7    90    7.2   147      8.9   810.1    0.00       4    43.4
 273    5:40   38.4    89    8.1   152     10.4   810.0    0.00       7    43.4
 273    5:50   37.5    90    8.5   157     10.8   810.1    0.00      10    43.3
 273    6:00   36.8    91    9.5   159     12.2   810.1    0.00      34    43.1
 273    6:10   37.2    90    8.4   166     13.2   810.1    0.00      42    43.0
 273    6:20   37.5    89    9.8   162     13.5   810.0    0.00      49    43.1
 273    6:30   37.8    89   11.1   157     13.4   810.0    0.00      83    43.2
 273    6:40   38.2    88   11.1   161     14.7   810.0    0.00      90    43.4
 273    6:50   38.4    89   10.0   162     13.3   810.1    0.00      81    43.6
 273    7:00   38.7    89   10.3   156     14.0   810.2    0.00      94    43.7
 273    7:10   39.5    88   11.4   156     15.2   810.2    0.00     119    44.0
 273    7:20   40.5    85   10.4   160     14.0   810.3    0.00     139    44.3
 273    7:30   41.4    83    7.8   164     13.4   810.4    0.00     131    44.6
 273    7:40   42.2    82    9.8   158     13.2   810.2    0.00     314    45.2
 273    7:50   44.1    78    9.1   156     12.8   810.2    0.00     410    46.7
 273    8:00   46.0    74    9.2   152     11.7   810.2    0.00     447    48.3

Return to Ely, Nevada graphs page.


Western Regional Climate Center,wrcc@dri.edu